Warning: Javascript must be enabled to use all the features on this page!


Page Loading - Please Wait...

Click to hideNews Bulletins
Click to hide state-specific text

Explore Real-time Water Data Using New Products from USGS TXWSC

View over 750 USGS real-time stream, lake, reservoir, precipitation, and groundwater stations in context with current weather and hazard conditions on both desktop and mobile devices.

Click to go to the Texas Water Dashboard Click to go to the WATER On-the-go app

Follow @USGS_TexasFlood and @USGS_TexasRain on Twitter to get current water level and precipitation data during flooding or severe rainfall events.


USGS 08195000 Frio Rv at Concan, TX

PROVISIONAL DATA SUBJECT TO REVISION

Click to hidestation-specific text
Funding for this site is provided by the cooperators / programs below:
Click to go to the Edwards Aquifer Authority web page

Edwards Aquifer Authority

Click to go to the Cooperative Matching Funds web page

Cooperative Matching Funds

 

Rainfall Disclaimer


retransmission, forecasts and summary of this location by the National Weather Service
Retransmission, forecasts and summary by the National Weather Service
This station managed by the San Antonio Field Unit.

Available Parameters Available Period
All 6 Available Parameters for this site
  
00010 Temperature, water 2013-07-25  2018-08-15
00045 Precipitation 2018-04-17  2018-08-15
00060 Discharge 1991-10-01  2018-08-15
00065 Gage height 2007-10-01  2018-08-15
00095 Specific cond at 25C 2013-07-02  2018-08-15
99133 NO3+NO2,water,insitu 2015-09-24  2018-08-15

Graph
Graph w/ stats
Graph w/o stats
Graph w/ (up to 3) parms
Table
Tab-separated
Days  (2)
 

  -- or --
Begin date
 

End date
 

Summary of all available data for this site
Instantaneous-data availability statement






Date / Time




Gage
height,
feet,




Dis-
charge,
ft3/s,



Precip-
itation
total,
inches,
Specif-
ic
conduc-
tance,
wat unf
uS/cm @
25 degC,



Temper-
ature,
water,
deg C,

Nitrate
+
nitrite
water,
in situ
mg/L as,
08/13/2018 00:00 CDT3.71P  59.6P  0.00P  431P  26.9P  0.25P  
08/13/2018 00:15 CDT3.71P  59.6P  0.00P  431P  26.8P     
08/13/2018 00:30 CDT3.69P  55.5P  0.00P  431P  26.8P     
08/13/2018 00:45 CDT3.71P  59.6P  0.00P  430P  26.7P     
08/13/2018 01:00 CDT3.69P  55.5P  0.00P  429P  26.6P  0.25P  
08/13/2018 01:15 CDT3.70P  57.5P  0.00P  429P  26.6P     
08/13/2018 01:30 CDT3.70P  57.5P  0.00P  429P  26.5P     
08/13/2018 01:45 CDT3.69P  55.5P  0.00P  428P  26.4P     
08/13/2018 02:00 CDT3.69P  55.5P  0.00P  428P  26.4P  0.25P  
08/13/2018 02:15 CDT3.68P  53.6P  0.00P  427P  26.3P     
08/13/2018 02:30 CDT3.68P  53.6P  0.00P  426P  26.3P     
08/13/2018 02:45 CDT3.67P  51.7P  0.00P  427P  26.2P     
08/13/2018 03:00 CDT3.67P  51.7P  0.00P  427P  26.2P  0.25P  
08/13/2018 03:15 CDT3.66P  49.8P  0.00P  426P  26.1P     
08/13/2018 03:30 CDT3.66P  49.8P  0.00P  425P  26.1P     
08/13/2018 03:45 CDT3.66P  49.8P  0.00P  425P  26.0P     
08/13/2018 04:00 CDT3.65P  48.0P  0.00P  426P  26.0P  0.26P  
08/13/2018 04:15 CDT3.65P  48.0P  0.00P  426P  26.0P     
08/13/2018 04:30 CDT3.65P  48.0P  0.00P  426P  25.9P     
08/13/2018 04:45 CDT3.64P  46.2P  0.00P  425P  25.9P     
08/13/2018 05:00 CDT3.65P  48.0P  0.00P  425P  25.8P  0.26P  
08/13/2018 05:15 CDT3.64P  46.2P  0.00P  425P  25.8P     
08/13/2018 05:30 CDT3.64P  46.2P  0.00P  425P  25.8P     
08/13/2018 05:45 CDT3.64P  46.2P  0.00P  424P  25.8P     
08/13/2018 06:00 CDT3.63P  44.5P  0.00P  425P  25.7P  0.26P  
08/13/2018 06:15 CDT3.62P  42.8P  0.00P  425P  25.7P     
08/13/2018 06:30 CDT3.62P  42.8P  0.00P  425P  25.7P     
08/13/2018 06:45 CDT3.62P  42.8P  0.00P  425P  25.6P     
08/13/2018 07:00 CDT3.62P  42.8P  0.00P  421P  25.6P  0.27P  
08/13/2018 07:15 CDT3.62P  42.8P  0.00P  421P  25.6P     
08/13/2018 07:30 CDT3.62P  42.8P  0.00P  418P  25.6P     
08/13/2018 07:45 CDT3.62P  42.8P  0.00P  417P  25.6P     
08/13/2018 08:00 CDT3.60P  39.6P  0.00P  417P  25.5P  0.27P  
08/13/2018 08:15 CDT3.60P  39.6P  0.00P  417P  25.5P     
08/13/2018 08:30 CDT3.60P  39.6P  0.00P  417P  25.5P     
08/13/2018 08:45 CDT3.61P  41.2P  0.00P  417P  25.5P     
08/13/2018 09:00 CDT3.60P  39.6P  0.00P  418P  25.5P  0.27P  
08/13/2018 09:15 CDT3.59P  38.0P  0.00P  419P  25.5P     
08/13/2018 09:30 CDT3.59P  38.0P  0.00P  419P  25.5P     
08/13/2018 09:45 CDT3.59P  38.0P  0.00P  419P  25.5P     
08/13/2018 10:00 CDT3.60P  39.6P  0.00P  420P  25.5P  0.27P  
08/13/2018 10:15 CDT3.58P  36.5P  0.00P  420P  25.5P     
08/13/2018 10:30 CDT3.57P  35.0P  0.00P  420P  25.5P     
08/13/2018 10:45 CDT3.58P  36.5P  0.00P  421P  25.5P     
08/13/2018 11:00 CDT3.58P  36.5P  0.00P  421P  25.5P  0.28P  
08/13/2018 11:15 CDT3.58P  36.5P  0.00P  422P  25.5P     
08/13/2018 11:30 CDT3.56P  33.5P  0.00P  422P  25.5P     
08/13/2018 11:45 CDT3.57P  35.0P  0.00P  422P  25.6P     
08/13/2018 12:00 CDT3.58P  36.5P  0.00P  423P  25.6P  0.28P  
08/13/2018 12:15 CDT3.56P  33.5P  0.00P  423P  25.6P     
08/13/2018 12:30 CDT3.56P  33.5P  0.00P  423P  25.7P     
08/13/2018 12:45 CDT3.56P  33.5P  0.00P  423P  25.8P     
08/13/2018 13:00 CDT3.56P  33.5P  0.00P  423P  25.9P  0.28P  
08/13/2018 13:15 CDT3.56P  33.5P  0.00P  422P  26.0P     
08/13/2018 13:30 CDT3.57P  35.0P  0.00P  422P  26.2P     
08/13/2018 13:45 CDT3.55P  32.1P  0.00P  421P  26.3P     
08/13/2018 14:00 CDT3.56P  33.5P  0.00P  421P  26.4P  0.28P  
08/13/2018 14:15 CDT3.55P  32.1P  0.00P  422P  26.5P     
08/13/2018 14:30 CDT3.54P  30.7P  0.00P  422P  26.6P     
08/13/2018 14:45 CDT3.54P  30.7P  0.00P  422P  26.6P     
08/13/2018 15:00 CDT3.56P  33.5P  0.00P  423P  26.7P  0.29P  
08/13/2018 15:15 CDT3.55P  32.1P  0.00P  423P  26.7P     
08/13/2018 15:30 CDT3.55P  32.1P  0.00P  423P  26.7P     
08/13/2018 15:45 CDT3.54P  30.7P  0.00P  424P  26.7P     
08/13/2018 16:00 CDT3.54P  30.7P  0.00P  424P  26.8P  0.28P  
08/13/2018 16:15 CDT3.54P  30.7P  0.00P  424P  26.8P     
08/13/2018 16:30 CDT3.54P  30.7P  0.00P  424P  26.8P     
08/13/2018 16:45 CDT3.53P  29.4P  0.00P  424P  26.8P     
08/13/2018 17:00 CDT3.54P  30.7P  0.00P  425P  26.9P  0.29P  
08/13/2018 17:15 CDT3.54P  30.7P  0.00P  426P  26.9P     
08/13/2018 17:30 CDT3.54P  30.7P  0.00P  426P  26.9P     
08/13/2018 17:45 CDT3.53P  29.4P  0.00P  426P  27.0P     
08/13/2018 18:00 CDT3.53P  29.4P  0.00P  426P  27.0P  0.29P  
08/13/2018 18:15 CDT3.52P  28.2P  0.00P  426P  27.0P     
08/13/2018 18:30 CDT3.53P  29.4P  0.00P  427P  27.0P     
08/13/2018 18:45 CDT3.52P  28.2P  0.00P  427P  27.1P     
08/13/2018 19:00 CDT3.52P  28.2P  0.00P  428P  27.1P  0.29P  
08/13/2018 19:15 CDT3.52P  28.2P  0.00P  429P  27.1P     
08/13/2018 19:30 CDT3.53P  29.4P  0.00P  428P  27.1P     
08/13/2018 19:45 CDT3.52P  28.2P  0.00P  427P  27.1P     
08/13/2018 20:00 CDT3.52P  28.2P  0.00P  427P  27.1P  0.30P  
08/13/2018 20:15 CDT3.53P  29.4P  0.00P  427P  27.0P     
08/13/2018 20:30 CDT3.52P  28.2P  0.00P  428P  27.0P     
08/13/2018 20:45 CDT3.52P  28.2P  0.00P  428P  27.0P     
08/13/2018 21:00 CDT3.51P  27.0P  0.00P  429P  27.0P  0.30P  
08/13/2018 21:15 CDT3.51P  27.0P  0.00P  430P  27.0P     
08/13/2018 21:30 CDT3.51P  27.0P  0.00P  432P  27.0P     
08/13/2018 21:45 CDT3.52P  28.2P  0.00P  433P  27.0P     
08/13/2018 22:00 CDT3.50P  25.8P  0.00P  434P  26.9P  0.30P  
08/13/2018 22:15 CDT3.51P  27.0P  0.00P  435P  26.9P     
08/13/2018 22:30 CDT3.51P  27.0P  0.00P  436P  26.9P     
08/13/2018 22:45 CDT3.51P  27.0P  0.00P  437P  26.9P     
08/13/2018 23:00 CDT3.52P  28.2P  0.00P  438P  26.8P  0.30P  
08/13/2018 23:15 CDT3.51P  27.0P  0.00P  437P  26.8P     
08/13/2018 23:30 CDT3.51P  27.0P  0.00P  439P  26.8P     
08/13/2018 23:45 CDT3.51P  27.0P  0.00P  439P  26.8P     
08/14/2018 00:00 CDT3.51P  27.0P  0.00P  437P  26.8P  0.30P  
08/14/2018 00:15 CDT3.51P  27.0P  0.00P  438P  26.7P     
08/14/2018 00:30 CDT3.51P  27.0P  0.00P  439P  26.7P     
08/14/2018 00:45 CDT3.51P  27.0P  0.00P  438P  26.7P     
08/14/2018 01:00 CDT3.50P  25.8P  0.00P  436P  26.6P  0.30P  
08/14/2018 01:15 CDT3.50P  25.8P  0.00P  436P  26.6P     
08/14/2018 01:30 CDT3.50P  25.8P  0.00P  436P  26.6P     
08/14/2018 01:45 CDT3.50P  25.8P  0.00P  436P  26.6P     
08/14/2018 02:00 CDT3.49P  24.6P  0.00P  437P  26.5P  0.30P  
08/14/2018 02:15 CDT3.51P  27.0P  0.00P  437P  26.5P     
08/14/2018 02:30 CDT3.50P  25.8P  0.00P  437P  26.5P     
08/14/2018 02:45 CDT3.50P  25.8P  0.00P  438P  26.4P     
08/14/2018 03:00 CDT3.51P  27.0P  0.00P  438P  26.4P  0.30P  
08/14/2018 03:15 CDT3.50P  25.8P  0.00P  439P  26.4P     
08/14/2018 03:30 CDT3.50P  25.8P  0.00P  437P  26.4P     
08/14/2018 03:45 CDT3.49P  24.6P  0.00P  439P  26.4P     
08/14/2018 04:00 CDT3.49P  24.6P  0.00P  439P  26.3P  0.31P  
08/14/2018 04:15 CDT3.49P  24.6P  0.00P  439P  26.3P     
08/14/2018 04:30 CDT3.49P  24.6P  0.00P  440P  26.3P     
08/14/2018 04:45 CDT3.50P  25.8P  0.00P  440P  26.3P     
08/14/2018 05:00 CDT3.49P  24.6P  0.00P  441P  26.2P  0.31P  
08/14/2018 05:15 CDT3.48P  23.5P  0.00P  442P  26.2P     
08/14/2018 05:30 CDT3.50P  25.8P  0.00P  442P  26.2P     
08/14/2018 05:45 CDT3.49P  24.6P  0.00P  443P  26.2P     
08/14/2018 06:00 CDT3.50P  25.8P  0.00P  443P  26.1P  0.31P  
08/14/2018 06:15 CDT3.50P  25.8P  0.00P  443P  26.1P     
08/14/2018 06:30 CDT3.49P  24.6P  0.00P  443P  26.1P     
08/14/2018 06:45 CDT3.48P  23.5P  0.00P  443P  26.1P     
08/14/2018 07:00 CDT3.50P  25.8P  0.00P  440P  26.0P  0.31P  
08/14/2018 07:15 CDT3.50P  25.8P  0.00P  438P  26.0P     
08/14/2018 07:30 CDT3.50P  25.8P  0.00P  437P  26.0P     
08/14/2018 07:45 CDT3.48P  23.5P  0.00P  436P  26.0P     
08/14/2018 08:00 CDT3.48P  23.5P  0.00P  436P  25.9P  0.31P  
08/14/2018 08:15 CDT3.49P  24.6P  0.00P  436P  25.9P     
08/14/2018 08:30 CDT3.49P  24.6P  0.00P  436P  25.9P     
08/14/2018 08:45 CDT3.48P  23.5P  0.00P  437P  25.9P     
08/14/2018 09:00 CDT3.47P  22.5P  0.00P  437P  25.9P  0.32P  
08/14/2018 09:15 CDT3.47P  22.5P  0.00P  438P  25.9P     
08/14/2018 09:30 CDT3.48P  23.5P  0.00P  438P  25.9P     
08/14/2018 09:45 CDT3.47P  22.5P  0.00P  438P  25.9P     
08/14/2018 10:00 CDT3.48P  23.5P  0.00P  438P  25.9P  0.31P  
08/14/2018 10:15 CDT3.50P  25.8P  0.00P  438P  25.9P     
08/14/2018 10:30 CDT3.49P  24.6P  0.00P  437P  25.9P     
08/14/2018 10:45 CDT3.48P  23.5P  0.00P  438P  26.0P     
08/14/2018 11:00 CDT3.49P  24.6P  0.00P  438P  26.0P  0.31P  
08/14/2018 11:15 CDT3.47P  22.5P  0.00P  439P  26.1P     
08/14/2018 11:30 CDT3.47P  22.5P  0.00P  439P  26.2P     
08/14/2018 11:45 CDT3.48P  23.5P  0.00P  439P  26.3P     
08/14/2018 12:00 CDT3.48P  23.5P  0.00P  439P  26.5P  0.31P  
08/14/2018 12:15 CDT3.47P  22.5P  0.00P  439P  26.6P     
08/14/2018 12:30 CDT3.47P  22.5P  0.00P  439P  26.8P     
08/14/2018 12:45 CDT3.47P  22.5P  0.00P  438P  26.9P     
08/14/2018 13:00 CDT3.47P  22.5P  0.00P  438P  27.1P  0.31P  
08/14/2018 13:15 CDT3.47P  22.5P  0.00P  438P  27.2P     
08/14/2018 13:30 CDT3.47P  22.5P  0.00P  437P  27.3P     
08/14/2018 13:45 CDT3.47P  22.5P  0.00P  438P  27.4P     
08/14/2018 14:00 CDT3.46P  21.4P  0.00P  438P  27.5P  0.30P  
08/14/2018 14:15 CDT3.48P  23.5P  0.00P  438P  27.6P     
08/14/2018 14:30 CDT3.47P  22.5P  0.00P  437P  27.6P     
08/14/2018 14:45 CDT3.47P  22.5P  0.00P  437P  27.7P     
08/14/2018 15:00 CDT3.46P  21.4P  0.00P  436P  27.8P  0.30P  
08/14/2018 15:15 CDT3.47P  22.5P  0.00P  436P  28.0P     
08/14/2018 15:30 CDT3.47P  22.5P  0.00P  436P  28.1P     
08/14/2018 15:45 CDT3.46P  21.4P  0.00P  436P  28.2P     
08/14/2018 16:00 CDT3.47P  22.5P  0.00P  436P  28.4P  0.30P  
08/14/2018 16:15 CDT3.46P  21.4P  0.00P  435P  28.5P     
08/14/2018 16:30 CDT3.46P  21.4P  0.00P  435P  28.6P     
08/14/2018 16:45 CDT3.45P  20.4P  0.00P  433P  28.7P     
08/14/2018 17:00 CDT3.45P  20.4P  0.00P  433P  28.8P  0.30P  
08/14/2018 17:15 CDT3.46P  21.4P  0.00P  432P  28.8P     
08/14/2018 17:30 CDT3.46P  21.4P  0.00P  432P  28.9P     
08/14/2018 17:45 CDT3.46P  21.4P  0.00P  433P  29.0P     
08/14/2018 18:00 CDT3.46P  21.4P  0.00P  432P  29.1P  0.30P  
08/14/2018 18:15 CDT3.45P  20.4P  0.00P  434P  29.1P     
08/14/2018 18:30 CDT3.46P  21.4P  0.00P  434P  29.1P     
08/14/2018 18:45 CDT3.46P  21.4P  0.00P  434P  29.1P     
08/14/2018 19:00 CDT3.46P  21.4P  0.00P  435P  29.1P  0.30P  
08/14/2018 19:15 CDT3.46P  21.4P  0.00P  436P  29.1P     
08/14/2018 19:30 CDT3.45P  20.4P  0.00P  436P  29.0P     
08/14/2018 19:45 CDT3.45P  20.4P  0.00P  433P  29.0P     
08/14/2018 20:00 CDT3.46P  21.4P  0.00P  434P  28.9P  0.30P  
08/14/2018 20:15 CDT3.45P  20.4P  0.00P  433P  28.9P     
08/14/2018 20:30 CDT3.46P  21.4P  0.00P  433P  28.8P     
08/14/2018 20:45 CDT3.46P  21.4P  0.00P  434P  28.8P     
08/14/2018 21:00 CDT3.46P  21.4P  0.00P  435P  28.8P  0.30P  
08/14/2018 21:15 CDT3.45P  20.4P  0.00P  437P  28.7P     
08/14/2018 21:30 CDT3.45P  20.4P  0.00P  437P  28.6P     
08/14/2018 21:45 CDT3.46P  21.4P  0.00P  439P  28.6P     
08/14/2018 22:00 CDT3.45P  20.4P  0.00P  440P  28.5P  0.31P  
08/14/2018 22:15 CDT3.46P  21.4P  0.00P  443P  28.4P     
08/14/2018 22:30 CDT3.45P  20.4P  0.00P  444P  28.3P     
08/14/2018 22:45 CDT3.44P  19.4P  0.00P  446P  28.2P     
08/14/2018 23:00 CDT3.45P  20.4P  0.00P  448P  28.2P  0.31P  
08/14/2018 23:15 CDT3.44P  19.4P  0.00P  448P  28.1P     
08/14/2018 23:30 CDT3.44P  19.4P  0.00P  450P  28.1P     
08/14/2018 23:45 CDT3.44P  19.4P  0.00P  452P  28.0P     
08/15/2018 00:00 CDT3.44P  19.4P  0.00P  452P  27.9P  0.31P  
08/15/2018 00:15 CDT3.44P  19.4P  0.00P  454P  27.8P     
08/15/2018 00:30 CDT3.45P  20.4P  0.00P  455P  27.7P     
08/15/2018 00:45 CDT3.45P  20.4P  0.00P  453P  27.7P     
08/15/2018 01:00 CDT3.45P  20.4P  0.00P  452P  27.6P  0.31P  
08/15/2018 01:15 CDT3.44P  19.4P  0.00P  453P  27.5P     
08/15/2018 01:30 CDT3.45P  20.4P  0.00P  453P  27.5P     
08/15/2018 01:45 CDT3.45P  20.4P  0.00P  452P  27.4P     
08/15/2018 02:00 CDT3.44P  19.4P  0.00P  451P  27.4P  0.32P  
08/15/2018 02:15 CDT3.45P  20.4P  0.00P  450P  27.3P     
08/15/2018 02:30 CDT3.45P  20.4P  0.00P  449P  27.3P     
08/15/2018 02:45 CDT3.44P  19.4P  0.00P  449P  27.2P     
08/15/2018 03:00 CDT3.44P  19.4P  0.00P  449P  27.2P  0.31P  
08/15/2018 03:15 CDT3.44P  19.4P  0.00P  449P  27.2P     
08/15/2018 03:30 CDT3.45P  20.4P  0.00P  448P  27.1P     
08/15/2018 03:45 CDT3.45P  20.4P  0.00P  448P  27.1P     
08/15/2018 04:00 CDT3.45P  20.4P  0.00P  448P  27.1P  0.32P  
08/15/2018 04:15 CDT3.45P  20.4P  0.00P  449P  27.0P     
08/15/2018 04:30 CDT3.43P  18.4P  0.00P  449P  27.0P     
08/15/2018 04:45 CDT3.44P  19.4P  0.00P  448P  27.0P     
08/15/2018 05:00 CDT3.43P  18.4P  0.00P  448P  26.9P  0.32P  
08/15/2018 05:15 CDT3.45P  20.4P  0.00P  449P  26.9P     
08/15/2018 05:30 CDT3.45P  20.4P  0.00P  448P  26.9P     
08/15/2018 05:45 CDT3.44P  19.4P  0.00P  448P  26.8P     
08/15/2018 06:00 CDT3.45P  20.4P  0.00P  448P  26.8P  0.32P  
08/15/2018 06:15 CDT3.44P  19.4P  0.00P  448P  26.8P     
08/15/2018 06:30 CDT3.43P  18.4P  0.00P  449P  26.8P     
08/15/2018 06:45 CDT3.44P  19.4P  0.00P  450P  26.7P     
08/15/2018 07:00 CDT3.45P  20.4P  0.00P  446P  26.7P  0.32P  
08/15/2018 07:15 CDT3.44P  19.4P  0.00P  444P  26.7P     
08/15/2018 07:30 CDT3.44P  19.4P  0.00P  444P  26.7P     
08/15/2018 07:45 CDT3.43P  18.4P  0.00P  444P  26.6P     
08/15/2018 08:00 CDT3.43P  18.4P  0.00P  444P  26.6P  0.32P  
08/15/2018 08:15 CDT3.44P  19.4P  0.00P  444P  26.6P     
08/15/2018 08:30 CDT3.44P  19.4P  0.00P  445P  26.6P     
08/15/2018 08:45 CDT3.44P  19.4P  0.00P  445P  26.6P     
08/15/2018 09:00 CDT3.43P  18.4P  0.00P  445P  26.6P  0.32P  
08/15/2018 09:15 CDT3.44P  19.4P  0.00P  445P  26.6P     
08/15/2018 09:30 CDT3.44P  19.4P  0.00P  446P  26.6P     
08/15/2018 09:45 CDT3.44P  19.4P  0.00P  445P  26.6P     
08/15/2018 10:00 CDT3.44P  19.4P  0.00P  445P  26.6P  0.32P  
08/15/2018 10:15 CDT3.43P  18.4P  0.00P  445P  26.6P     
08/15/2018 10:30 CDT3.44P  19.4P  0.00P  446P  26.6P     
08/15/2018 10:45 CDT3.44P  19.4P  0.00P  447P  26.6P     
08/15/2018 11:00 CDT3.44P  19.4P  0.00P  446P  26.6P  0.33P  
08/15/2018 11:15 CDT3.44P  19.4P  0.00P  447P  26.6P     
08/15/2018 11:30 CDT3.43P  18.4P  0.00P  447P  26.6P     
08/15/2018 11:45 CDT3.43P  18.4P  0.00P  447P  26.7P     
08/15/2018 12:00 CDT3.44P  19.4P  0.00P  447P  26.8P  0.32P  
08/15/2018 12:15 CDT3.42P  17.5P  0.00P  447P  26.9P     
08/15/2018 12:30 CDT3.43P  18.4P  0.00P  447P  26.9P     
08/15/2018 12:45 CDT3.42P  17.5P  0.00P  447P  27.0P     
08/15/2018 13:00 CDT3.43P  18.4P  0.00P  447P  27.1P  0.31P  
08/15/2018 13:15 CDT3.42P  17.5P  0.00P  447P  27.2P     
08/15/2018 13:30 CDT3.44P  19.4P  0.00P  448P  27.4P     
08/15/2018 13:45 CDT3.44P  19.4P  0.00P  446P  27.5P     
08/15/2018 14:00 CDT3.43P  18.4P  0.00P  444P  27.6P  0.32P  
08/15/2018 14:15 CDT3.43P  18.4P  0.00P  442P  27.8P     
08/15/2018 14:30 CDT3.44P  19.4P  0.00P  439P  28.0P     
08/15/2018 14:45 CDT3.44P  19.4P  0.00P  439P  28.2P     
08/15/2018 15:00 CDT3.44P  19.4P  0.00P  439P  28.3P  0.31P  
08/15/2018 15:15 CDT3.44P  19.4P  0.00P  440P  28.4P     
08/15/2018 15:30 CDT3.43P  18.4P  0.00P  438P  28.6P     

Explanation
  P  Provisional data subject to revision.